Erin, NY (14838)

8:14 PM EST on February 01, 2015 (GMT -0500)
APRSWXNET Erin NY US | Change Station
CLOSE
Current Station
Personal Weather Station
Location: Erin, NY
Elevation: 1660 ft
Nearby Weather Stations
Active Advisory: Winter Storm Warning

Elev 1660 ft 42.15 °N, 76.65 °W | Updated 28 minutes ago

Snow
Snow
18 °F
Feels Like 18 °F
N
2
Wind Variable Wind from East
Gusts 6.0 mph

Today
High -- | Low -- °F
--% Chance of Precip.
Yesterday
High -- | Low -- °F
Precip. -- in
7:20 AM 5:20 PM
Waxing Gibbous, 97% visible
Pressure 30.02 in
Visibility 2.0 miles
Clouds Scattered Clouds 1900 ft
Overcast 2400 ft
Windchill 18 °F
Dew Point 17 °F
Humidity 94%
Rainfall 0.05 in
Snow Depth Not available.
UV 0 out of 12
Pollen .10 out of 12
Air Quality Not available.
Flu Activity Not available.
METAR KELM 020053Z AUTO 06006KT 2SM -SN BR SCT019 OVC024 M07/M09 A2998 RMK AO2 SLP166 P0000 T10721089

More Conditions Fewer Conditions

Pressure 30.02 in
Visibility 2.0 miles
Clouds Scattered Clouds 1900 ft
Overcast 2400 ft
Windchill 18 °F
Dew Point 17 °F
Humidity 94%
Rainfall 0.05 in
Snow Depth Not available.
UV 0 out of 12
Pollen .10 out of 12
Air Quality Not available.
Flu Activity Not available.
METAR KELM 020053Z AUTO 06006KT 2SM -SN BR SCT019 OVC024 M07/M09 A2998 RMK AO2 SLP166 P0000 T10721089

More Conditions Fewer Conditions

10-Day Weather Forecast

Almanac

Astronomy

Feb. 01, 2015 Rise Set
Actual Time
Civil Twilight
Nautical Twilight
Astronomical Twilight
Moon
Length of Visible Light
Length of Day
Tomorrow will be .
, % of the Moon is Illuminated

Today's Extremes

State Highs State Lows

Community

WunderPhotos

Upload Photos

1,792,641 photos uploaded!

WunderBlogs® & News

Nearby

Air Quality

  Air Quality AQ Index Pollutant
Not available.

Snow Depth

Station Depth Elevation

Earthquake Activity

City Distance Mag. Time & Date
Minimum magnitude displayed is 2.5.

Coastal Water Temperatures

Place Temperature

Nearby Weather Stations